Latest Coastal Weather Observations for Dunalley

IDT60701

Issued at 8:15 am EST Thursday 2 October 2014 (issued every 10 minutes, with the page automatically refreshed every 10 minutes)

About coastal observations | Map of coastal stations | Coastal observations for TAS | Marine services | Other Formats
Station Details ID: 094254 Name: DUNALLEY (STROUD POINT) Lat: -42.90 Lon: 147.79 Height: 12.43 m
Data from the previous 72 hours. | See also: Recent months at Dunalley
Date/Time
EST
Temp

°C
Wind Pressure Rain
since 9am
mm
Weather Cloud Vis
km
Sea
Height
m
Swell
Dir
 
Speed
knots
Gust
knots
hPa Trend Height
m
Period
s
Dir
02/08:00am 13.5 WSW 22 28 1010.9 - 0.0 - - - - - - -
02/07:38am 13.1 W 18 28 1010.9 - 0.0 - - - - - - -
02/07:30am 13.0 W 16 20 1011.0 - 0.0 - - - - - - -
02/07:00am 13.2 W 17 26 1010.7 - 0.0 - - - - - - -
02/06:30am 12.9 W 23 30 1010.5 - 0.0 - - - - - - -
02/06:08am 13.0 W 16 27 1010.4 - 0.0 - - - - - - -
02/06:00am 12.6 W 15 18 1010.3 - 0.0 - - - - - - -
02/05:30am 12.7 WSW 17 24 1010.0 - 0.0 - - - - - - -
02/05:27am 12.7 W 16 24 1009.9 - 0.0 - - - - - - -
02/05:00am 12.7 WNW 8 13 1009.7 - 0.0 - - - - - - -
02/04:30am 12.9 WNW 11 15 1009.7 - 0.0 - - - - - - -
02/04:00am 12.9 WNW 13 17 1009.6 - 0.0 - - - - - - -
02/03:30am 12.7 W 18 23 1009.2 - 0.0 - - - - - - -
02/03:00am 12.4 W 16 20 1009.2 - 0.0 - - - - - - -
02/02:30am 12.8 W 18 27 1009.3 - 0.0 - - - - - - -
02/02:00am 12.6 W 19 25 1009.1 - 0.0 - - - - - - -
02/01:30am 12.5 W 17 22 1009.4 - 0.0 - - - - - - -
02/01:21am 12.7 W 18 29 1009.5 - 0.0 - - - - - - -
02/01:00am 12.9 W 22 29 1009.6 - 0.0 - - - - - - -
02/12:30am 12.6 W 17 23 1010.1 - 0.0 - - - - - - -
02/12:24am 12.7 W 17 28 1010.2 - 0.0 - - - - - - -
02/12:00am 12.7 WNW 17 26 1010.3 - 0.0 - - - - - - -
 
Date/Time
EST
Temp

°C
Wind Pressure Rain
since 9am
mm
Weather Cloud Vis
km
Sea
Height
m
Swell
Dir
 
Speed
knots
Gust
knots
hPa Trend Height
m
Period
s
Dir
01/11:57pm 12.6 WNW 16 26 1010.3 - 0.0 - - - - - - -
01/11:30pm 12.3 WNW 14 21 1011.0 - 0.0 - - - - - - -
01/11:00pm 12.1 NW 10 16 1011.4 - 0.0 - - - - - - -
01/10:30pm 11.8 WNW 17 25 1011.6 - 0.0 - - - - - - -
01/10:00pm 11.8 WNW 17 26 1011.6 - 0.0 - - - - - - -
01/09:52pm 11.5 WNW 15 26 1011.8 - 0.0 - - - - - - -
01/09:30pm 11.5 NW 14 19 1012.0 - 0.0 - - - - - - -
01/09:00pm 10.9 NW 12 17 1012.3 - 0.0 - - - - - - -
01/08:30pm 10.6 WNW 11 16 1013.0 - 0.0 - - - - - - -
01/08:00pm 10.9 NW 14 18 1013.2 - 0.0 - - - - - - -
01/07:30pm 11.4 WNW 17 23 1013.6 - 0.0 - - - - - - -
01/07:00pm 11.2 WNW 14 20 1013.9 - 0.0 - - - - - - -
01/06:30pm 11.2 WNW 13 18 1014.2 - 0.0 - - - - - - -
01/06:00pm 11.9 W 16 21 1014.3 - 0.0 - - - - - - -
01/05:30pm 12.3 WSW 21 25 1014.3 - 0.0 - - - - - - -
01/05:00pm 12.3 WSW 22 27 1013.8 - 0.0 - - - - - - -
01/04:30pm 12.9 WSW 19 23 1013.9 - 0.0 - - - - - - -
01/04:00pm 12.8 WSW 23 27 1013.6 - 0.0 - - - - - - -
01/03:30pm 13.0 WSW 22 25 1013.4 - 0.0 - - - - - - -
01/03:00pm 12.8 WSW 24 29 1013.2 - 0.0 - - - - - - -
01/02:30pm 13.0 WSW 23 28 1013.7 - 0.0 - - - - - - -
01/02:00pm 13.1 WSW 16 19 1013.4 - 0.0 - - - - - - -
01/01:30pm 12.3 WSW 19 24 1013.3 - 0.0 - - - - - - -
01/01:00pm 10.7 WSW 20 25 1013.6 - 0.0 - - - - - - -
01/12:45pm 10.9 SW 20 30 1013.9 - 0.0 - - - - - - -
01/12:30pm 12.3 WSW 20 27 1013.8 - 0.0 - - - - - - -
01/12:00pm 12.4 WSW 20 25 1013.6 - 0.0 - - - - - - -
01/11:30am 11.8 WSW 22 26 1013.5 - 0.0 - - - - - - -
01/11:00am 12.6 W 21 26 1013.4 - 0.0 - - - - - - -
01/10:30am 11.8 W 22 28 1013.4 - 0.0 - - - - - - -
01/10:00am 11.4 W 23 28 1013.4 - 0.0 - - - - - - -
01/09:30am 11.3 W 22 26 1013.4 - 0.0 - - - - - - -
01/09:00am 10.9 W 23 27 1013.1 - 11.2 - - - - - - -
01/08:30am 10.6 W 19 23 1012.8 - 11.2 - - - - - - -
01/08:00am 9.8 W 18 23 1012.4 - 11.2 - - - - - - -
01/07:30am 9.2 W 21 25 1012.0 - 11.2 - - - - - - -
01/07:00am 8.5 W 20 26 1011.3 - 11.2 - - - - - - -
01/06:30am 8.0 W 22 27 1010.5 - 11.2 - - - - - - -
01/06:00am 7.9 W 22 27 1009.9 - 11.2 Recent precip. - - - - - -
01/05:30am 6.8 WSW 24 31 1009.3 - 11.2 - - - - - - -
01/05:00am 8.5 W 27 33 1007.8 - 11.0 - - - - - - -
01/04:39am 7.3 W 15 26 1008.0 - 11.0 - - - - - - -
01/04:30am 7.9 W 20 27 1007.9 - 11.0 - - - - - - -
01/04:22am 7.7 W 16 27 1007.9 - 11.0 - - - - - - -
01/04:00am 6.7 W 12 19 1007.4 - 11.0 - - - - - - -
01/03:30am 6.5 WNW 12 18 1006.9 - 11.0 - - - - - - -
01/03:00am 7.4 W 24 29 1006.3 - 11.0 - - - - - - -
01/02:30am 7.0 W 16 24 1006.1 - 11.0 - - - - - - -
01/02:00am 8.2 W 27 37 1005.7 - 11.0 - - - - - - -
01/01:56am 8.0 W 25 36 1005.6 - 11.0 - - - - - - -
01/01:30am 6.4 WNW 8 11 1005.3 - 11.0 - - - - - - -
01/01:00am 7.9 W 17 21 1004.6 - 11.0 - - - - - - -
01/12:30am 7.8 WSW 23 29 1004.1 - 11.0 - - - - - - -
01/12:00am 8.8 WSW 26 32 1003.6 - 11.0 - - - - - - -
 
Date/Time
EST
Temp

°C
Wind Pressure Rain
since 9am
mm
Weather Cloud Vis
km
Sea
Height
m
Swell
Dir
 
Speed
knots
Gust
knots
hPa Trend Height
m
Period
s
Dir
30/11:30pm 8.7 WSW 22 27 1003.2 - 11.0 - - - - - - -
30/11:00pm 8.8 W 22 28 1002.4 - 11.0 - - - - - - -
30/10:30pm 9.1 WSW 23 28 1002.0 - 11.0 - - - - - - -
30/10:00pm 9.2 W 26 31 1001.2 - 11.0 - - - - - - -
30/09:30pm 9.1 W 26 33 1000.6 - 11.0 - - - - - - -
30/09:00pm 9.0 W 25 30 1000.1 - 11.0 - - - - - - -
30/08:30pm 9.3 WSW 22 27 1000.0 - 11.0 - - - - - - -
30/08:00pm 9.2 W 24 29 999.1 - 11.0 - - - - - - -
30/07:30pm 9.6 WSW 22 25 998.4 - 11.0 - - - - - - -
30/07:17pm 9.6 W 23 27 998.1 - 11.0 - - - - - - -
30/07:00pm 9.7 WSW 34 39 997.5 - 11.0 - - - - - - -
30/06:56pm 9.2 WSW 35 39 997.3 - 11.0 - - - - - - -
30/06:30pm 10.6 WSW 24 32 996.5 - 11.0 - - - - - - -
30/06:22pm 10.2 WSW 23 26 996.3 - 11.0 - - - - - - -
30/06:00pm 9.5 S 8 13 996.1 - 9.8 Rain - - - - - -
30/05:30pm 10.5 S 6 8 995.2 - 6.0 - - - - - - -
30/05:00pm 10.5 S 6 10 994.7 - 6.0 - - - - - - -
30/04:30pm 10.5 S 5 7 994.0 - 6.0 - - - - - - -
30/04:00pm 10.8 S 3 5 993.2 - 6.0 - - - - - - -
30/03:30pm 10.2 S 5 7 993.7 - 6.0 - - - - - - -
30/03:00pm 10.6 S 4 5 994.2 - 5.2 Rain - - - - - -
30/02:30pm 10.6 S 15 20 994.3 - 4.0 - - - - - - -
30/02:00pm 11.9 S 18 23 992.8 - 0.0 - - - - - - -
30/01:50pm 12.7 S 15 20 992.5 - 0.0 - - - - - - -
30/01:30pm 17.8 WNW 7 11 992.6 - 0.0 - - - - - - -
30/01:00pm 17.2 W 7 11 993.0 - 0.0 - - - - - - -
30/12:30pm 16.8 W 14 18 993.1 - 0.0 - - - - - - -
30/12:00pm 17.8 W 11 15 993.6 - 0.0 - - - - - - -
30/11:30am 18.1 NW 12 18 993.9 - 0.0 - - - - - - -
30/11:00am 18.2 NNW 9 18 994.2 - 0.0 - - - - - - -
30/10:30am 18.4 NW 14 20 994.7 - 0.0 - - - - - - -
30/10:00am 18.5 NW 11 17 995.3 - 0.0 - - - - - - -
30/09:30am 18.0 NNW 11 20 996.0 - 0.0 - - - - - - -
30/09:00am 17.9 N 11 20 996.6 - 0.0 - - - - - - -
30/08:30am 16.7 NW 9 15 997.3 - 0.0 - - - - - - -
30/08:00am 16.3 NNW 11 23 997.6 - 0.0 - - - - - - -
30/07:30am 15.2 NNE 5 9 997.8 - 0.0 - - - - - - -
30/07:00am 13.5 ENE 13 17 997.9 - 0.0 - - - - - - -
30/06:30am 12.4 NE 11 13 998.6 - 0.0 - - - - - - -
30/06:00am 11.3 NNE 5 9 999.0 - 0.0 - - - - - - -
30/05:30am 11.4 NNE 6 12 999.2 - 0.0 - - - - - - -
30/05:00am 13.6 N 7 11 999.4 - 0.0 - - - - - - -
30/04:30am 14.3 N 5 10 999.4 - 0.0 - - - - - - -
30/04:00am 13.2 NE 5 11 999.7 - 0.0 - - - - - - -
30/03:30am 14.5 NNW 9 15 999.9 - 0.0 - - - - - - -
30/03:00am 14.1 N 7 15 1000.3 - 0.0 - - - - - - -
30/02:30am 12.7 NE 3 7 1000.9 - 0.0 - - - - - - -
30/02:00am 12.5 NNE 6 11 1001.4 - 0.0 - - - - - - -
30/01:30am 12.7 NE 10 14 1001.7 - 0.0 - - - - - - -
30/01:00am 14.4 NW 8 14 1002.1 - 0.0 - - - - - - -
30/12:30am 13.9 NW 11 18 1002.3 - 0.0 - - - - - - -
30/12:00am 14.1 NNW 12 20 1002.5 - 0.0 - - - - - - -
 
Date/Time
EST
Temp

°C
Wind Pressure Rain
since 9am
mm
Weather Cloud Vis
km
Sea
Height
m
Swell
Dir
 
Speed
knots
Gust
knots
hPa Trend Height
m
Period
s
Dir
29/11:30pm 14.0 NW 10 17 1002.7 - 0.0 - - - - - - -
29/11:00pm 13.4 NW 8 14 1003.0 - 0.0 - - - - - - -
29/10:30pm 13.8 NW 11 16 1003.2 - 0.0 - - - - - - -
29/10:00pm 13.9 NW 11 19 1003.3 - 0.0 - - - - - - -
29/09:30pm 13.7 NW 11 17 1003.5 - 0.0 - - - - - - -
29/09:00pm 13.4 WNW 8 13 1003.6 - 0.0 - - - - - - -
29/08:30pm 13.7 WNW 9 16 1003.7 - 0.0 - - - - - - -
29/08:00pm 14.5 WNW 13 22 1003.8 - 0.0 - - - - - - -
29/07:30pm 14.3 WNW 9 14 1003.4 - 0.0 - - - - - - -
29/07:00pm 15.4 WNW 12 20 1003.1 - 0.0 - - - - - - -
29/06:30pm 15.6 WNW 11 18 1002.8 - 0.0 - - - - - - -
29/06:00pm 16.2 WNW 14 19 1002.4 - 0.0 - - - - - - -
29/05:30pm 17.3 W 11 17 1002.3 - 0.0 - - - - - - -
29/05:00pm 17.9 W 10 15 1002.0 - 0.0 - - - - - - -
29/04:30pm 18.2 W 11 17 1002.0 - 0.0 - - - - - - -
29/04:00pm 18.4 WNW 13 23 1002.1 - 0.0 - - - - - - -
29/03:30pm 18.1 WNW 15 23 1002.4 - 0.0 - - - - - - -
29/03:00pm 18.9 WNW 15 24 1002.6 - 0.0 - - - - - - -
29/02:41pm 18.5 WNW 17 32 1002.4 - 0.0 - - - - - - -
29/02:30pm 18.5 WNW 17 24 1002.8 - 0.0 - - - - - - -
29/02:00pm 18.5 W 15 22 1003.0 - 0.0 - - - - - - -
29/01:41pm 18.0 W 18 28 1003.1 - 0.0 - - - - - - -
29/01:30pm 18.2 WNW 19 28 1003.0 - 0.0 - - - - - - -
29/01:15pm 17.6 WNW 18 28 1003.3 - 0.0 - - - - - - -
29/01:00pm 17.5 WNW 16 24 1003.4 - 0.0 - - - - - - -
29/12:32pm 17.4 WNW 19 30 1003.7 - 0.0 - - - - - - -
29/12:30pm 17.2 WNW 19 26 1003.7 - 0.0 - - - - - - -
29/12:04pm 17.0 WNW 21 31 1003.8 - 0.0 - - - - - - -
29/12:00pm 16.8 WNW 22 31 1003.8 - 0.0 - - - - - - -
29/11:54am 16.7 WNW 20 31 1003.6 - 0.0 - - - - - - -
29/11:30am 16.8 WNW 15 24 1003.4 - 0.0 - - - - - - -
29/11:00am 16.4 WNW 12 19 1003.7 - 0.0 - - - - - - -
29/10:40am 15.6 WNW 17 28 1003.8 - 0.0 - - - - - - -
29/10:30am 15.7 WNW 19 28 1003.9 - 0.0 - - - - - - -
29/10:00am 15.4 WNW 17 25 1003.9 - 0.0 - - - - - - -
29/09:30am 14.8 W 14 22 1003.8 - 0.0 - - - - - - -
29/09:00am 14.1 W 13 19 1003.6 - 0.0 - - - - - - -
29/08:30am 13.7 WNW 11 18 1003.1 - 0.0 - - - - - - -

Other Formats:

Comma delimited format used in spreadsheet applications
http://www.bom.gov.au/fwo/IDT60701/IDT60701.94951.axf

JavaScript Object Notation format (JSON) in row-major order
http://www.bom.gov.au/fwo/IDT60701/IDT60701.94951.json